DART12 EPDE-EPDE
Flight info
| Callsign | DART12 |
|---|---|
| Flight time | 1h 35m |
| Altitude | 24000 |
| Route | DCT TDN DCT SOWEX DCT KUKAM DCT KAK STAY1/0010 DCT GOGUS DCT IRLUN DCT GZD STAY1/0010 DCT DAHOW DCT TDN |
| Aircraft | M346/L-S/C |
Departure
| Time | 2026-04-19 17:25 |
|---|---|
| Airport | Deblin Military Air Base (EPDE) |
Arrival
| Time | 2026-04-19 19:01 |
|---|---|
| Airport | Deblin Military Air Base (EPDE) |
| Time | Latitude | Longitude | Altitude | Speed | Heading |
|---|---|---|---|---|---|
| 2026-04-19 17:16 | 51.55549 | 21.87739 | 383 ft | 0 kts | 15° |
| 2026-04-19 17:21 | 51.55553 | 21.87741 | 383 ft | 5 kts | 14° |
| 2026-04-19 17:22 | 51.55612 | 21.87796 | 385 ft | 16 kts | 65° |
| 2026-04-19 17:22 | 51.55592 | 21.87911 | 385 ft | 0 kts | 119° |
| 2026-04-19 17:25 | 51.55237 | 21.88887 | 437 ft | 154 kts | 119° |
| 2026-04-19 17:25 | 51.54533 | 21.90807 | 1219 ft | 238 kts | 121° |
| 2026-04-19 17:25 | 51.53019 | 21.92486 | 2217 ft | 317 kts | 175° |
| 2026-04-19 17:26 | 51.51490 | 21.91808 | 2779 ft | 366 kts | 205° |
| 2026-04-19 17:26 | 51.49113 | 21.90039 | 4428 ft | 377 kts | 204° |
| 2026-04-19 17:26 | 51.46794 | 21.88351 | 6781 ft | 353 kts | 204° |
| 2026-04-19 17:26 | 51.44597 | 21.86813 | 8923 ft | 341 kts | 204° |
| 2026-04-19 17:27 | 51.42397 | 21.85368 | 10608 ft | 344 kts | 204° |
| 2026-04-19 17:27 | 51.40235 | 21.83777 | 12247 ft | 339 kts | 217° |
| 2026-04-19 17:27 | 51.38711 | 21.80973 | 13285 ft | 345 kts | 242° |
| 2026-04-19 17:27 | 51.37584 | 21.77515 | 14267 ft | 352 kts | 248° |
| 2026-04-19 17:28 | 51.36660 | 21.73918 | 15548 ft | 345 kts | 256° |
| 2026-04-19 17:28 | 51.36017 | 21.70248 | 16906 ft | 337 kts | 257° |
| 2026-04-19 17:28 | 51.35352 | 21.66585 | 18195 ft | 351 kts | 253° |
| 2026-04-19 17:28 | 51.34329 | 21.62971 | 19518 ft | 361 kts | 245° |
| 2026-04-19 17:29 | 51.33195 | 21.59683 | 20988 ft | 358 kts | 244° |
| 2026-04-19 17:29 | 51.32025 | 21.56261 | 22782 ft | 344 kts | 245° |
| 2026-04-19 17:29 | 51.30864 | 21.52843 | 23638 ft | 359 kts | 245° |
| 2026-04-19 17:29 | 51.29637 | 21.49191 | 23824 ft | 387 kts | 245° |
| 2026-04-19 17:30 | 51.28329 | 21.45262 | 24053 ft | 408 kts | 246° |
| 2026-04-19 17:30 | 51.27047 | 21.41298 | 24030 ft | 436 kts | 246° |
| 2026-04-19 17:30 | 51.25631 | 21.36851 | 24009 ft | 461 kts | 245° |
| 2026-04-19 17:30 | 51.24127 | 21.32244 | 24082 ft | 474 kts | 245° |
| 2026-04-19 17:31 | 51.22702 | 21.27784 | 23439 ft | 478 kts | 246° |
| 2026-04-19 17:31 | 51.21322 | 21.23394 | 23997 ft | 480 kts | 246° |
| 2026-04-19 17:31 | 51.19772 | 21.18677 | 24015 ft | 481 kts | 244° |
| 2026-04-19 17:31 | 51.18156 | 21.13970 | 23984 ft | 485 kts | 244° |
| 2026-04-19 17:32 | 51.16509 | 21.09251 | 23957 ft | 488 kts | 244° |
| 2026-04-19 17:32 | 51.14871 | 21.04510 | 24006 ft | 489 kts | 244° |
| 2026-04-19 17:32 | 51.13204 | 20.99759 | 23979 ft | 493 kts | 244° |
| 2026-04-19 17:32 | 51.11536 | 20.94971 | 23971 ft | 493 kts | 244° |
| 2026-04-19 17:33 | 51.09887 | 20.90221 | 23964 ft | 491 kts | 244° |
| 2026-04-19 17:33 | 51.08227 | 20.85560 | 23957 ft | 489 kts | 243° |
| 2026-04-19 17:33 | 51.06588 | 20.80825 | 23941 ft | 487 kts | 244° |
| 2026-04-19 17:33 | 51.05112 | 20.76549 | 24010 ft | 484 kts | 243° |
| 2026-04-19 17:34 | 51.03471 | 20.71879 | 23969 ft | 482 kts | 244° |
| 2026-04-19 17:34 | 51.01897 | 20.67178 | 23976 ft | 481 kts | 244° |
| 2026-04-19 17:34 | 51.00336 | 20.62497 | 23964 ft | 479 kts | 244° |
| 2026-04-19 17:34 | 50.98796 | 20.57823 | 23978 ft | 476 kts | 245° |
| 2026-04-19 17:35 | 50.97253 | 20.53178 | 23980 ft | 474 kts | 244° |
| 2026-04-19 17:35 | 50.95685 | 20.48567 | 23964 ft | 474 kts | 244° |
| 2026-04-19 17:35 | 50.94064 | 20.44006 | 23935 ft | 473 kts | 242° |
| 2026-04-19 17:35 | 50.92435 | 20.39495 | 23988 ft | 471 kts | 243° |
| 2026-04-19 17:36 | 50.91340 | 20.36521 | 23988 ft | 471 kts | 242° |
| 2026-04-19 17:36 | 50.88817 | 20.29919 | 23990 ft | 470 kts | 240° |
| 2026-04-19 17:36 | 50.87118 | 20.25497 | 23977 ft | 469 kts | 242° |
| 2026-04-19 17:36 | 50.85443 | 20.21061 | 24004 ft | 469 kts | 242° |
| 2026-04-19 17:37 | 50.83794 | 20.16618 | 23994 ft | 469 kts | 243° |
| 2026-04-19 17:37 | 50.82187 | 20.12121 | 23961 ft | 470 kts | 243° |
| 2026-04-19 17:37 | 50.80573 | 20.07870 | 23927 ft | 471 kts | 231° |
| 2026-04-19 17:37 | 50.77784 | 20.05604 | 23809 ft | 477 kts | 192° |
| 2026-04-19 17:38 | 50.74476 | 20.04756 | 23492 ft | 486 kts | 196° |
| 2026-04-19 17:38 | 50.71179 | 20.03513 | 23131 ft | 489 kts | 197° |
| 2026-04-19 17:38 | 50.67825 | 20.02402 | 22457 ft | 496 kts | 194° |
| 2026-04-19 17:38 | 50.64417 | 20.01572 | 21648 ft | 496 kts | 180° |
| 2026-04-19 17:39 | 50.60965 | 20.02247 | 20192 ft | 500 kts | 176° |
| 2026-04-19 17:39 | 50.57618 | 20.02924 | 19030 ft | 482 kts | 176° |
| 2026-04-19 17:39 | 50.54337 | 20.03548 | 17816 ft | 471 kts | 176° |
| 2026-04-19 17:39 | 50.51110 | 20.04134 | 16459 ft | 462 kts | 176° |
| 2026-04-19 17:40 | 50.47943 | 20.04718 | 15157 ft | 456 kts | 176° |
| 2026-04-19 17:40 | 50.44785 | 20.05241 | 13767 ft | 455 kts | 175° |
| 2026-04-19 17:40 | 50.41663 | 20.05822 | 12500 ft | 449 kts | 175° |
| 2026-04-19 17:40 | 50.38586 | 20.06258 | 11665 ft | 445 kts | 176° |
| 2026-04-19 17:41 | 50.35468 | 20.06726 | 10378 ft | 451 kts | 175° |
| 2026-04-19 17:41 | 50.32366 | 20.07143 | 8473 ft | 433 kts | 176° |
| 2026-04-19 17:41 | 50.29477 | 20.07488 | 6581 ft | 399 kts | 176° |
| 2026-04-19 17:41 | 50.26810 | 20.07795 | 5038 ft | 369 kts | 176° |
| 2026-04-19 17:42 | 50.24352 | 20.08060 | 3969 ft | 344 kts | 177° |
| 2026-04-19 17:42 | 50.22157 | 20.08323 | 3964 ft | 289 kts | 176° |
| 2026-04-19 17:42 | 50.20267 | 20.08593 | 3994 ft | 253 kts | 176° |
| 2026-04-19 17:42 | 50.18655 | 20.08860 | 3966 ft | 213 kts | 175° |
| 2026-04-19 17:43 | 50.17284 | 20.08925 | 3491 ft | 196 kts | 195° |
| 2026-04-19 17:43 | 50.16109 | 20.07978 | 2992 ft | 180 kts | 217° |
| 2026-04-19 17:43 | 50.15099 | 20.06915 | 2986 ft | 177 kts | 216° |
| 2026-04-19 17:43 | 50.14067 | 20.05782 | 2996 ft | 185 kts | 217° |
| 2026-04-19 17:44 | 50.12976 | 20.04558 | 3003 ft | 204 kts | 216° |
| 2026-04-19 17:44 | 50.11785 | 20.03268 | 3000 ft | 202 kts | 215° |
| 2026-04-19 17:44 | 50.10855 | 20.01713 | 2940 ft | 200 kts | 250° |
| 2026-04-19 17:44 | 50.10581 | 19.99523 | 2830 ft | 209 kts | 261° |
| 2026-04-19 17:45 | 50.10398 | 19.97486 | 2567 ft | 174 kts | 259° |
| 2026-04-19 17:45 | 50.10180 | 19.95746 | 2279 ft | 154 kts | 258° |
| 2026-04-19 17:45 | 50.09968 | 19.94116 | 2010 ft | 157 kts | 258° |
| 2026-04-19 17:45 | 50.09723 | 19.92356 | 1786 ft | 175 kts | 257° |
| 2026-04-19 17:46 | 50.09454 | 19.90525 | 1612 ft | 168 kts | 258° |
| 2026-04-19 17:46 | 50.09184 | 19.88739 | 1434 ft | 170 kts | 258° |
| 2026-04-19 17:46 | 50.08940 | 19.87021 | 1289 ft | 168 kts | 259° |
| 2026-04-19 17:46 | 50.08697 | 19.85258 | 1201 ft | 165 kts | 259° |
| 2026-04-19 17:47 | 50.08464 | 19.83551 | 1065 ft | 165 kts | 258° |
| 2026-04-19 17:47 | 50.08245 | 19.81951 | 957 ft | 151 kts | 259° |
| 2026-04-19 17:47 | 50.08026 | 19.80387 | 889 ft | 155 kts | 259° |
| 2026-04-19 17:47 | 50.07749 | 19.78375 | 1107 ft | 225 kts | 259° |
| 2026-04-19 17:48 | 50.07524 | 19.76673 | 1443 ft | 248 kts | 259° |
| 2026-04-19 17:48 | 50.07175 | 19.74029 | 2026 ft | 249 kts | 258° |
| 2026-04-19 17:48 | 50.06821 | 19.71377 | 2570 ft | 252 kts | 257° |
| 2026-04-19 17:48 | 50.06431 | 19.68684 | 3048 ft | 258 kts | 256° |
| 2026-04-19 17:49 | 50.06130 | 19.65878 | 3326 ft | 272 kts | 275° |
| 2026-04-19 17:49 | 50.06970 | 19.63228 | 4086 ft | 298 kts | 324° |
| 2026-04-19 17:49 | 50.09239 | 19.62968 | 5453 ft | 379 kts | 6° |
| 2026-04-19 17:49 | 50.12036 | 19.63570 | 7332 ft | 425 kts | 7° |
| 2026-04-19 17:50 | 50.15030 | 19.64223 | 9933 ft | 443 kts | 7° |
| 2026-04-19 17:50 | 50.18127 | 19.64853 | 12276 ft | 457 kts | 6° |
| 2026-04-19 17:50 | 50.21261 | 19.65392 | 14961 ft | 443 kts | 4° |
| 2026-04-19 17:50 | 50.24210 | 19.66000 | 18245 ft | 414 kts | 6° |
| 2026-04-19 17:51 | 50.26828 | 19.66603 | 21994 ft | 344 kts | 5° |
| 2026-04-19 17:51 | 50.28993 | 19.67247 | 24288 ft | 309 kts | 7° |
| 2026-04-19 17:51 | 50.31244 | 19.68000 | 24053 ft | 352 kts | 6° |
| 2026-04-19 17:51 | 50.33763 | 19.68827 | 24021 ft | 393 kts | 7° |
| 2026-04-19 17:52 | 50.36583 | 19.69663 | 24041 ft | 428 kts | 6° |
| 2026-04-19 17:52 | 50.39617 | 19.70490 | 24031 ft | 455 kts | 6° |
| 2026-04-19 17:52 | 50.42781 | 19.71315 | 23973 ft | 473 kts | 6° |
| 2026-04-19 17:52 | 50.46101 | 19.72193 | 23961 ft | 491 kts | 6° |
| 2026-04-19 17:53 | 50.49511 | 19.73062 | 24026 ft | 498 kts | 4° |
| 2026-04-19 17:53 | 50.52960 | 19.73542 | 23991 ft | 500 kts | 360° |
| 2026-04-19 17:53 | 50.56451 | 19.73710 | 23953 ft | 499 kts | 356° |
| 2026-04-19 17:53 | 50.59931 | 19.73585 | 23998 ft | 497 kts | 353° |
| 2026-04-19 17:54 | 50.63365 | 19.73357 | 24012 ft | 499 kts | 353° |
| 2026-04-19 17:54 | 50.66826 | 19.72881 | 24038 ft | 496 kts | 346° |
| 2026-04-19 17:54 | 50.70230 | 19.71888 | 24008 ft | 497 kts | 345° |
| 2026-04-19 17:54 | 50.73630 | 19.70734 | 24001 ft | 498 kts | 343° |
| 2026-04-19 17:55 | 50.76996 | 19.69628 | 23978 ft | 501 kts | 345° |
| 2026-04-19 17:55 | 50.80444 | 19.68550 | 23953 ft | 501 kts | 345° |
| 2026-04-19 17:55 | 50.83826 | 19.67486 | 24056 ft | 498 kts | 345° |
| 2026-04-19 17:55 | 50.87240 | 19.66332 | 23998 ft | 497 kts | 344° |
| 2026-04-19 17:56 | 50.90585 | 19.65151 | 23991 ft | 496 kts | 343° |
| 2026-04-19 17:56 | 50.93927 | 19.63977 | 24016 ft | 496 kts | 344° |
| 2026-04-19 17:56 | 50.97297 | 19.62758 | 24015 ft | 494 kts | 343° |
| 2026-04-19 17:56 | 51.00676 | 19.61553 | 23987 ft | 496 kts | 344° |
| 2026-04-19 17:57 | 51.04061 | 19.60496 | 24063 ft | 491 kts | 343° |
| 2026-04-19 17:57 | 51.07370 | 19.59303 | 24019 ft | 493 kts | 344° |
| 2026-04-19 17:57 | 51.10739 | 19.58118 | 23968 ft | 495 kts | 344° |
| 2026-04-19 17:57 | 51.14112 | 19.56909 | 23981 ft | 494 kts | 344° |
| 2026-04-19 17:58 | 51.17488 | 19.55689 | 23955 ft | 496 kts | 344° |
| 2026-04-19 17:58 | 51.20822 | 19.54497 | 23964 ft | 497 kts | 345° |
| 2026-04-19 17:58 | 51.24233 | 19.53354 | 23969 ft | 497 kts | 345° |
| 2026-04-19 17:58 | 51.27588 | 19.52205 | 23933 ft | 498 kts | 344° |
| 2026-04-19 17:59 | 51.30985 | 19.51012 | 23965 ft | 497 kts | 344° |
| 2026-04-19 17:59 | 51.34380 | 19.49783 | 23933 ft | 498 kts | 344° |
| 2026-04-19 17:59 | 51.37736 | 19.48547 | 23977 ft | 498 kts | 344° |
| 2026-04-19 17:59 | 51.41102 | 19.47335 | 23940 ft | 498 kts | 344° |
| 2026-04-19 18:00 | 51.44483 | 19.46089 | 23957 ft | 498 kts | 344° |
| 2026-04-19 18:00 | 51.47881 | 19.44844 | 23938 ft | 498 kts | 345° |
| 2026-04-19 18:00 | 51.51281 | 19.43641 | 23947 ft | 498 kts | 344° |
| 2026-04-19 18:00 | 51.54627 | 19.42425 | 23940 ft | 498 kts | 344° |
| 2026-04-19 18:01 | 51.58016 | 19.41180 | 23940 ft | 497 kts | 342° |
| 2026-04-19 18:01 | 51.61391 | 19.39904 | 23930 ft | 499 kts | 346° |
| 2026-04-19 18:01 | 51.64747 | 19.38795 | 24038 ft | 493 kts | 344° |
| 2026-04-19 18:01 | 51.68100 | 19.37471 | 24061 ft | 494 kts | 343° |
| 2026-04-19 18:02 | 51.71469 | 19.36159 | 23952 ft | 497 kts | 344° |
| 2026-04-19 18:02 | 51.74814 | 19.34942 | 23933 ft | 497 kts | 344° |
| 2026-04-19 18:02 | 51.78183 | 19.33647 | 23960 ft | 497 kts | 345° |
| 2026-04-19 18:02 | 51.81575 | 19.32458 | 23931 ft | 497 kts | 345° |
| 2026-04-19 18:03 | 51.84917 | 19.31220 | 23972 ft | 496 kts | 344° |
| 2026-04-19 18:03 | 51.88308 | 19.30012 | 23971 ft | 496 kts | 345° |
| 2026-04-19 18:03 | 51.91645 | 19.28759 | 23982 ft | 496 kts | 344° |
| 2026-04-19 18:03 | 51.95024 | 19.27447 | 23970 ft | 496 kts | 343° |
| 2026-04-19 18:04 | 51.98364 | 19.26125 | 23940 ft | 497 kts | 343° |
| 2026-04-19 18:04 | 52.01736 | 19.24819 | 23971 ft | 497 kts | 344° |
| 2026-04-19 18:04 | 52.05116 | 19.23493 | 23937 ft | 498 kts | 343° |
| 2026-04-19 18:04 | 52.08462 | 19.22263 | 23998 ft | 496 kts | 345° |
| 2026-04-19 18:05 | 52.11849 | 19.21064 | 24019 ft | 496 kts | 344° |
| 2026-04-19 18:05 | 52.15216 | 19.19758 | 23972 ft | 497 kts | 344° |
| 2026-04-19 18:05 | 52.18551 | 19.18463 | 23980 ft | 497 kts | 345° |
| 2026-04-19 18:05 | 52.21924 | 19.17104 | 23964 ft | 498 kts | 344° |
| 2026-04-19 18:06 | 52.25297 | 19.15744 | 23951 ft | 499 kts | 345° |
| 2026-04-19 18:06 | 52.28662 | 19.14428 | 23966 ft | 499 kts | 345° |
| 2026-04-19 18:06 | 52.32042 | 19.13039 | 23959 ft | 500 kts | 343° |
| 2026-04-19 18:06 | 52.35382 | 19.11618 | 23962 ft | 500 kts | 344° |
| 2026-04-19 18:07 | 52.42174 | 19.08859 | 23968 ft | 501 kts | 344° |
| 2026-04-19 18:07 | 52.45554 | 19.07522 | 23959 ft | 503 kts | 346° |
| 2026-04-19 18:07 | 52.48968 | 19.06066 | 23963 ft | 503 kts | 343° |
| 2026-04-19 18:08 | 52.52296 | 19.04434 | 23964 ft | 504 kts | 342° |
| 2026-04-19 18:08 | 52.55643 | 19.02723 | 23961 ft | 505 kts | 342° |
| 2026-04-19 18:08 | 52.59049 | 19.01114 | 23969 ft | 507 kts | 344° |
| 2026-04-19 18:08 | 52.62483 | 18.99682 | 23977 ft | 508 kts | 345° |
| 2026-04-19 18:09 | 52.65906 | 18.98405 | 24019 ft | 509 kts | 346° |
| 2026-04-19 18:09 | 52.69385 | 18.97104 | 24020 ft | 510 kts | 346° |
| 2026-04-19 18:09 | 52.72823 | 18.95755 | 24006 ft | 512 kts | 344° |
| 2026-04-19 18:09 | 52.76263 | 18.94185 | 24001 ft | 514 kts | 343° |
| 2026-04-19 18:10 | 52.79731 | 18.92526 | 23974 ft | 516 kts | 342° |
| 2026-04-19 18:10 | 52.83153 | 18.90879 | 23997 ft | 518 kts | 343° |
| 2026-04-19 18:10 | 52.86648 | 18.89179 | 24010 ft | 520 kts | 342° |
| 2026-04-19 18:10 | 52.90098 | 18.87524 | 24023 ft | 519 kts | 343° |
| 2026-04-19 18:11 | 52.93563 | 18.85984 | 24034 ft | 509 kts | 344° |
| 2026-04-19 18:11 | 52.96981 | 18.84478 | 24013 ft | 497 kts | 344° |
| 2026-04-19 18:11 | 53.00282 | 18.83031 | 23986 ft | 488 kts | 344° |
| 2026-04-19 18:11 | 53.03506 | 18.81609 | 24003 ft | 480 kts | 344° |
| 2026-04-19 18:12 | 53.06731 | 18.80148 | 23952 ft | 476 kts | 342° |
| 2026-04-19 18:12 | 53.09883 | 18.78679 | 23959 ft | 471 kts | 343° |
| 2026-04-19 18:12 | 53.13063 | 18.77389 | 23969 ft | 468 kts | 345° |
| 2026-04-19 18:12 | 53.16235 | 18.76094 | 24011 ft | 465 kts | 345° |
| 2026-04-19 18:13 | 53.19395 | 18.74853 | 23977 ft | 465 kts | 345° |
| 2026-04-19 18:13 | 53.22500 | 18.73544 | 23994 ft | 463 kts | 343° |
| 2026-04-19 18:13 | 53.25601 | 18.72107 | 24031 ft | 462 kts | 343° |
| 2026-04-19 18:13 | 53.28708 | 18.70675 | 24052 ft | 461 kts | 343° |
| 2026-04-19 18:14 | 53.31774 | 18.69250 | 24012 ft | 462 kts | 343° |
| 2026-04-19 18:14 | 53.34881 | 18.67812 | 24001 ft | 461 kts | 340° |
| 2026-04-19 18:14 | 53.37732 | 18.65441 | 24038 ft | 455 kts | 325° |
| 2026-04-19 18:14 | 53.40257 | 18.62142 | 23791 ft | 461 kts | 317° |
| 2026-04-19 18:15 | 53.42766 | 18.58853 | 23292 ft | 469 kts | 329° |
| 2026-04-19 18:15 | 53.45918 | 18.57332 | 22182 ft | 480 kts | 346° |
| 2026-04-19 18:15 | 53.49203 | 18.56083 | 21206 ft | 475 kts | 346° |
| 2026-04-19 18:15 | 53.52348 | 18.54806 | 20641 ft | 458 kts | 346° |
| 2026-04-19 18:16 | 53.55373 | 18.53628 | 20274 ft | 442 kts | 346° |
| 2026-04-19 18:16 | 53.58381 | 18.52443 | 19222 ft | 445 kts | 346° |
| 2026-04-19 18:16 | 53.61416 | 18.51241 | 17940 ft | 450 kts | 346° |
| 2026-04-19 18:16 | 53.64447 | 18.50017 | 16619 ft | 452 kts | 346° |
| 2026-04-19 18:17 | 53.67509 | 18.48741 | 15591 ft | 449 kts | 346° |
| 2026-04-19 18:17 | 53.70537 | 18.47514 | 14837 ft | 442 kts | 347° |
| 2026-04-19 18:17 | 53.73513 | 18.46300 | 13863 ft | 443 kts | 346° |
| 2026-04-19 18:17 | 53.76480 | 18.45075 | 12913 ft | 440 kts | 347° |
| 2026-04-19 18:18 | 53.79415 | 18.43872 | 12551 ft | 427 kts | 346° |
| 2026-04-19 18:18 | 53.82283 | 18.42632 | 12018 ft | 423 kts | 346° |
| 2026-04-19 18:18 | 53.85152 | 18.41401 | 11183 ft | 426 kts | 346° |
| 2026-04-19 18:18 | 53.88061 | 18.40204 | 10310 ft | 428 kts | 346° |
| 2026-04-19 18:19 | 53.90886 | 18.38990 | 10024 ft | 417 kts | 345° |
| 2026-04-19 18:19 | 53.93667 | 18.37745 | 9985 ft | 404 kts | 345° |
| 2026-04-19 18:19 | 53.96358 | 18.36471 | 9835 ft | 399 kts | 343° |
| 2026-04-19 18:19 | 53.99017 | 18.35120 | 9331 ft | 403 kts | 342° |
| 2026-04-19 18:20 | 54.01738 | 18.33809 | 8749 ft | 408 kts | 345° |
| 2026-04-19 18:20 | 54.04470 | 18.32421 | 7838 ft | 417 kts | 344° |
| 2026-04-19 18:20 | 54.07277 | 18.31067 | 6946 ft | 406 kts | 345° |
| 2026-04-19 18:20 | 54.09806 | 18.29829 | 6835 ft | 357 kts | 345° |
| 2026-04-19 18:21 | 54.12171 | 18.28603 | 6888 ft | 361 kts | 343° |
| 2026-04-19 18:21 | 54.14609 | 18.27272 | 6923 ft | 379 kts | 345° |
| 2026-04-19 18:21 | 54.17171 | 18.25818 | 6925 ft | 394 kts | 335° |
| 2026-04-19 18:21 | 54.19578 | 18.23606 | 6997 ft | 401 kts | 331° |
| 2026-04-19 18:22 | 54.22125 | 18.21600 | 7048 ft | 405 kts | 339° |
| 2026-04-19 18:22 | 54.24684 | 18.19574 | 7129 ft | 395 kts | 336° |
| 2026-04-19 18:22 | 54.27104 | 18.17627 | 7168 ft | 379 kts | 336° |
| 2026-04-19 18:22 | 54.29491 | 18.15724 | 6893 ft | 378 kts | 336° |
| 2026-04-19 18:23 | 54.31914 | 18.13797 | 6188 ft | 387 kts | 337° |
| 2026-04-19 18:23 | 54.34371 | 18.11872 | 5414 ft | 394 kts | 337° |
| 2026-04-19 18:23 | 54.36878 | 18.09868 | 4741 ft | 396 kts | 337° |
| 2026-04-19 18:23 | 54.39346 | 18.07895 | 4098 ft | 396 kts | 338° |
| 2026-04-19 18:24 | 54.41895 | 18.06089 | 3594 ft | 392 kts | 341° |
| 2026-04-19 18:24 | 54.44459 | 18.04407 | 2882 ft | 392 kts | 345° |
| 2026-04-19 18:24 | 54.46799 | 18.04875 | 3361 ft | 306 kts | 34° |
| 2026-04-19 18:24 | 54.47941 | 18.07455 | 3461 ft | 252 kts | 86° |
| 2026-04-19 18:25 | 54.47296 | 18.09887 | 3462 ft | 215 kts | 123° |
| 2026-04-19 18:25 | 54.46392 | 18.11814 | 3518 ft | 200 kts | 124° |
| 2026-04-19 18:25 | 54.45746 | 18.14026 | 3613 ft | 218 kts | 111° |
| 2026-04-19 18:25 | 54.45135 | 18.16510 | 3830 ft | 225 kts | 111° |
| 2026-04-19 18:26 | 54.44523 | 18.19030 | 3580 ft | 229 kts | 111° |
| 2026-04-19 18:26 | 54.43956 | 18.21268 | 3425 ft | 169 kts | 111° |
| 2026-04-19 18:26 | 54.43581 | 18.22755 | 3189 ft | 119 kts | 110° |
| 2026-04-19 18:26 | 54.43217 | 18.24259 | 3071 ft | 136 kts | 109° |
| 2026-04-19 18:27 | 54.42853 | 18.25741 | 3016 ft | 128 kts | 109° |
| 2026-04-19 18:27 | 54.42511 | 18.27109 | 3021 ft | 131 kts | 110° |
| 2026-04-19 18:27 | 54.42122 | 18.28676 | 2984 ft | 148 kts | 111° |
| 2026-04-19 18:27 | 54.41718 | 18.30331 | 2836 ft | 145 kts | 110° |
| 2026-04-19 18:28 | 54.41357 | 18.31858 | 2678 ft | 136 kts | 109° |
| 2026-04-19 18:28 | 54.40996 | 18.33358 | 2515 ft | 136 kts | 110° |
| 2026-04-19 18:28 | 54.40626 | 18.34846 | 2385 ft | 132 kts | 108° |
| 2026-04-19 18:28 | 54.40275 | 18.36319 | 2181 ft | 136 kts | 109° |
| 2026-04-19 18:29 | 54.39901 | 18.37799 | 2008 ft | 130 kts | 109° |
| 2026-04-19 18:29 | 54.39570 | 18.39127 | 1798 ft | 114 kts | 108° |
| 2026-04-19 18:29 | 54.39261 | 18.40362 | 1613 ft | 123 kts | 107° |
| 2026-04-19 18:29 | 54.38913 | 18.41806 | 1401 ft | 134 kts | 108° |
| 2026-04-19 18:30 | 54.38675 | 18.42799 | 1142 ft | 130 kts | 108° |
| 2026-04-19 18:30 | 54.38253 | 18.44558 | 665 ft | 132 kts | 108° |
| 2026-04-19 18:30 | 54.37955 | 18.45826 | 604 ft | 245 kts | 106° |
| 2026-04-19 18:30 | 54.37078 | 18.49311 | 1542 ft | 352 kts | 110° |
| 2026-04-19 18:31 | 54.35822 | 18.54600 | 4189 ft | 373 kts | 111° |
| 2026-04-19 18:31 | 54.35128 | 18.57424 | 5238 ft | 386 kts | 118° |
| 2026-04-19 18:31 | 54.33245 | 18.60661 | 6772 ft | 391 kts | 143° |
| 2026-04-19 18:31 | 54.30978 | 18.63208 | 8883 ft | 385 kts | 148° |
| 2026-04-19 18:32 | 54.28540 | 18.65578 | 11025 ft | 420 kts | 151° |
| 2026-04-19 18:32 | 54.25952 | 18.68030 | 13911 ft | 428 kts | 151° |
| 2026-04-19 18:32 | 54.23334 | 18.70461 | 16611 ft | 427 kts | 150° |
| 2026-04-19 18:32 | 54.20773 | 18.72891 | 19629 ft | 412 kts | 150° |
| 2026-04-19 18:33 | 54.18328 | 18.75208 | 22383 ft | 399 kts | 151° |
| 2026-04-19 18:33 | 54.15936 | 18.77664 | 23869 ft | 416 kts | 148° |
| 2026-04-19 18:33 | 54.13501 | 18.80808 | 23982 ft | 459 kts | 142° |
| 2026-04-19 18:33 | 54.10866 | 18.84310 | 24045 ft | 498 kts | 141° |
| 2026-04-19 18:34 | 54.08160 | 18.88131 | 24072 ft | 514 kts | 140° |
| 2026-04-19 18:34 | 54.05493 | 18.92107 | 24124 ft | 512 kts | 138° |
| 2026-04-19 18:34 | 54.02833 | 18.96153 | 24047 ft | 508 kts | 139° |
| 2026-04-19 18:34 | 54.00205 | 19.00093 | 24012 ft | 507 kts | 139° |
| 2026-04-19 18:35 | 53.97520 | 19.04010 | 24038 ft | 509 kts | 140° |
| 2026-04-19 18:35 | 53.94810 | 19.08006 | 24024 ft | 511 kts | 140° |
| 2026-04-19 18:35 | 53.92154 | 19.11883 | 24039 ft | 507 kts | 140° |
| 2026-04-19 18:35 | 53.89507 | 19.15885 | 24062 ft | 504 kts | 139° |
| 2026-04-19 18:36 | 53.86913 | 19.19812 | 24063 ft | 503 kts | 139° |
| 2026-04-19 18:36 | 53.84291 | 19.23750 | 24052 ft | 502 kts | 139° |
| 2026-04-19 18:36 | 53.81659 | 19.27692 | 24085 ft | 500 kts | 139° |
| 2026-04-19 18:36 | 53.78978 | 19.31420 | 24125 ft | 497 kts | 142° |
| 2026-04-19 18:37 | 53.76264 | 19.35003 | 24029 ft | 499 kts | 142° |
| 2026-04-19 18:37 | 53.73503 | 19.38626 | 24030 ft | 499 kts | 143° |
| 2026-04-19 18:37 | 53.70774 | 19.42215 | 24028 ft | 499 kts | 141° |
| 2026-04-19 18:37 | 53.68073 | 19.45948 | 24044 ft | 499 kts | 142° |
| 2026-04-19 18:38 | 53.65425 | 19.49616 | 24042 ft | 497 kts | 140° |
| 2026-04-19 18:38 | 53.62790 | 19.53456 | 24041 ft | 496 kts | 139° |
| 2026-04-19 18:38 | 53.60212 | 19.57228 | 24038 ft | 496 kts | 140° |
| 2026-04-19 18:38 | 53.57566 | 19.61091 | 24031 ft | 497 kts | 139° |
| 2026-04-19 18:39 | 53.54980 | 19.64888 | 24024 ft | 498 kts | 139° |
| 2026-04-19 18:39 | 53.52332 | 19.68679 | 24021 ft | 498 kts | 140° |
| 2026-04-19 18:39 | 53.49710 | 19.72553 | 24058 ft | 497 kts | 138° |
| 2026-04-19 18:39 | 53.47155 | 19.76380 | 24068 ft | 498 kts | 139° |
| 2026-04-19 18:40 | 53.44512 | 19.80197 | 24075 ft | 498 kts | 141° |
| 2026-04-19 18:40 | 53.41801 | 19.83865 | 24063 ft | 499 kts | 142° |
| 2026-04-19 18:40 | 53.39082 | 19.87487 | 24020 ft | 500 kts | 142° |
| 2026-04-19 18:40 | 53.36346 | 19.91105 | 24011 ft | 500 kts | 142° |
| 2026-04-19 18:41 | 53.33642 | 19.94683 | 24040 ft | 501 kts | 143° |
| 2026-04-19 18:41 | 53.30876 | 19.98285 | 24007 ft | 502 kts | 143° |
| 2026-04-19 18:41 | 53.28121 | 20.01870 | 24054 ft | 501 kts | 143° |
| 2026-04-19 18:41 | 53.25437 | 20.05498 | 24024 ft | 501 kts | 141° |
| 2026-04-19 18:42 | 53.22731 | 20.09201 | 24024 ft | 501 kts | 140° |
| 2026-04-19 18:42 | 53.20081 | 20.13001 | 24031 ft | 499 kts | 139° |
| 2026-04-19 18:42 | 53.17492 | 20.16748 | 24026 ft | 493 kts | 139° |
| 2026-04-19 18:42 | 53.14933 | 20.20543 | 23997 ft | 489 kts | 139° |
| 2026-04-19 18:43 | 53.12417 | 20.24278 | 23998 ft | 486 kts | 139° |
| 2026-04-19 18:43 | 53.09884 | 20.28042 | 24022 ft | 486 kts | 138° |
| 2026-04-19 18:43 | 53.07358 | 20.31832 | 23998 ft | 489 kts | 141° |
| 2026-04-19 18:43 | 53.04692 | 20.35306 | 23998 ft | 490 kts | 143° |
| 2026-04-19 18:44 | 53.01910 | 20.38586 | 24053 ft | 491 kts | 145° |
| 2026-04-19 18:44 | 52.99222 | 20.42032 | 24010 ft | 492 kts | 141° |
| 2026-04-19 18:44 | 52.96560 | 20.45667 | 23976 ft | 492 kts | 142° |
| 2026-04-19 18:44 | 52.93899 | 20.49224 | 24004 ft | 490 kts | 141° |
| 2026-04-19 18:45 | 52.91298 | 20.52796 | 23999 ft | 490 kts | 141° |
| 2026-04-19 18:45 | 52.88652 | 20.56429 | 23988 ft | 491 kts | 141° |
| 2026-04-19 18:45 | 52.86000 | 20.60015 | 24016 ft | 490 kts | 141° |
| 2026-04-19 18:45 | 52.83382 | 20.63526 | 24010 ft | 491 kts | 142° |
| 2026-04-19 18:46 | 52.80701 | 20.67062 | 24007 ft | 493 kts | 142° |
| 2026-04-19 18:46 | 52.78035 | 20.70646 | 24013 ft | 494 kts | 141° |
| 2026-04-19 18:46 | 52.75362 | 20.74256 | 23989 ft | 495 kts | 141° |
| 2026-04-19 18:46 | 52.72716 | 20.77850 | 23989 ft | 496 kts | 141° |
| 2026-04-19 18:47 | 52.70051 | 20.81487 | 24007 ft | 496 kts | 141° |
| 2026-04-19 18:47 | 52.67352 | 20.85055 | 24001 ft | 496 kts | 142° |
| 2026-04-19 18:47 | 52.64640 | 20.88584 | 24001 ft | 497 kts | 142° |
| 2026-04-19 18:47 | 52.61947 | 20.92077 | 24019 ft | 495 kts | 142° |
| 2026-04-19 18:48 | 52.59223 | 20.95631 | 24005 ft | 494 kts | 142° |
| 2026-04-19 18:48 | 52.56557 | 20.99119 | 24020 ft | 494 kts | 141° |
| 2026-04-19 18:48 | 52.53879 | 21.02711 | 24010 ft | 495 kts | 141° |
| 2026-04-19 18:48 | 52.51209 | 21.06285 | 24026 ft | 494 kts | 140° |
| 2026-04-19 18:49 | 52.48573 | 21.09808 | 24046 ft | 495 kts | 142° |
| 2026-04-19 18:49 | 52.45837 | 21.13267 | 23972 ft | 496 kts | 143° |
| 2026-04-19 18:49 | 52.43092 | 21.16622 | 23981 ft | 495 kts | 145° |
| 2026-04-19 18:49 | 52.40347 | 21.20068 | 23987 ft | 496 kts | 143° |
| 2026-04-19 18:50 | 52.38514 | 21.22330 | 24009 ft | 495 kts | 143° |
| 2026-04-19 18:50 | 52.34920 | 21.27000 | 24006 ft | 495 kts | 141° |
| 2026-04-19 18:50 | 52.32266 | 21.30624 | 24005 ft | 497 kts | 140° |
| 2026-04-19 18:50 | 52.29618 | 21.34273 | 24008 ft | 499 kts | 140° |
| 2026-04-19 18:51 | 52.26975 | 21.37964 | 23980 ft | 499 kts | 140° |
| 2026-04-19 18:51 | 52.24336 | 21.41707 | 23966 ft | 499 kts | 140° |
| 2026-04-19 18:51 | 52.21734 | 21.45314 | 24041 ft | 482 kts | 140° |
| 2026-04-19 18:52 | 52.16950 | 21.51914 | 23975 ft | 409 kts | 140° |
| 2026-04-19 18:52 | 52.14913 | 21.54782 | 23990 ft | 362 kts | 138° |
| 2026-04-19 18:52 | 52.13144 | 21.57355 | 24058 ft | 323 kts | 140° |
| 2026-04-19 18:52 | 52.11508 | 21.59639 | 24046 ft | 291 kts | 141° |
| 2026-04-19 18:53 | 52.10032 | 21.61631 | 23946 ft | 266 kts | 142° |
| 2026-04-19 18:53 | 52.08504 | 21.63662 | 23195 ft | 309 kts | 142° |
| 2026-04-19 18:53 | 52.06680 | 21.66034 | 22043 ft | 368 kts | 142° |
| 2026-04-19 18:53 | 52.04619 | 21.68707 | 20614 ft | 387 kts | 142° |
| 2026-04-19 18:54 | 52.02468 | 21.71454 | 19142 ft | 401 kts | 143° |
| 2026-04-19 18:54 | 52.00163 | 21.74290 | 17507 ft | 426 kts | 143° |
| 2026-04-19 18:54 | 51.97744 | 21.77262 | 15541 ft | 450 kts | 143° |
| 2026-04-19 18:54 | 51.95200 | 21.80422 | 13365 ft | 467 kts | 143° |
| 2026-04-19 18:55 | 51.92634 | 21.83627 | 12029 ft | 459 kts | 142° |
| 2026-04-19 18:55 | 51.90157 | 21.86752 | 11322 ft | 443 kts | 143° |
| 2026-04-19 18:55 | 51.87726 | 21.89762 | 10421 ft | 436 kts | 142° |
| 2026-04-19 18:55 | 51.85359 | 21.92692 | 9607 ft | 429 kts | 143° |
| 2026-04-19 18:56 | 51.82982 | 21.95623 | 8695 ft | 425 kts | 143° |
| 2026-04-19 18:56 | 51.80571 | 21.98461 | 7874 ft | 435 kts | 145° |
| 2026-04-19 18:56 | 51.77896 | 21.99988 | 7322 ft | 389 kts | 179° |
| 2026-04-19 18:56 | 51.75621 | 21.98260 | 7027 ft | 376 kts | 224° |
| 2026-04-19 18:57 | 51.73572 | 21.95392 | 6284 ft | 399 kts | 221° |
| 2026-04-19 18:57 | 51.71510 | 21.92486 | 5788 ft | 384 kts | 219° |
| 2026-04-19 18:57 | 51.69520 | 21.89704 | 5111 ft | 380 kts | 224° |
| 2026-04-19 18:57 | 51.67630 | 21.86702 | 4382 ft | 379 kts | 224° |
| 2026-04-19 18:58 | 51.65803 | 21.83854 | 3718 ft | 343 kts | 223° |
| 2026-04-19 18:58 | 51.64067 | 21.81614 | 2945 ft | 299 kts | 212° |
| 2026-04-19 18:58 | 51.62155 | 21.79743 | 2312 ft | 326 kts | 206° |
| 2026-04-19 18:58 | 51.60307 | 21.78258 | 2033 ft | 269 kts | 189° |
| 2026-04-19 18:59 | 51.58826 | 21.78955 | 1914 ft | 182 kts | 123° |
| 2026-04-19 18:59 | 51.58337 | 21.80381 | 1440 ft | 118 kts | 118° |
| 2026-04-19 18:59 | 51.57908 | 21.81540 | 1220 ft | 139 kts | 119° |
| 2026-04-19 18:59 | 51.57417 | 21.82855 | 1077 ft | 131 kts | 119° |
| 2026-04-19 19:00 | 51.56990 | 21.84078 | 897 ft | 117 kts | 119° |
| 2026-04-19 19:00 | 51.56608 | 21.85104 | 730 ft | 105 kts | 118° |
| 2026-04-19 19:00 | 51.56200 | 21.86241 | 647 ft | 127 kts | 117° |
| 2026-04-19 19:00 | 51.55770 | 21.87419 | 454 ft | 97 kts | 119° |
| 2026-04-19 19:01 | 51.55513 | 21.88122 | 383 ft | 34 kts | 121° |
| 2026-04-19 19:01 | 51.55457 | 21.88273 | 382 ft | 11 kts | 121° |
| 2026-04-19 19:01 | 51.55426 | 21.88357 | 382 ft | 6 kts | 120° |
| 2026-04-19 19:01 | 51.55411 | 21.88400 | 382 ft | 2 kts | 120° |